createdAt,value
2023-01-14T00:03:18.873Z,7.40
2023-01-14T00:08:25.493Z,7.30
2023-01-14T00:19:28.721Z,7.30
2023-01-14T00:25:19.012Z,7.30
2023-01-14T00:30:49.536Z,7.20
2023-01-14T00:36:31.487Z,7.20
2023-01-14T00:41:34.048Z,7.20
2023-01-14T00:46:48.227Z,7.10
2023-01-14T00:52:00.570Z,7.10
2023-01-14T00:57:05.669Z,7.00
2023-01-14T01:02:32.483Z,7.00
2023-01-14T01:07:51.199Z,6.90
2023-01-14T01:12:55.895Z,6.80
2023-01-14T01:18:04.812Z,6.80
2023-01-14T01:23:16.820Z,6.70
2023-01-14T01:28:57.055Z,6.70
2023-01-14T01:33:55.358Z,6.60
2023-01-14T01:39:00.165Z,6.50
2023-01-14T01:44:29.317Z,6.50
2023-01-14T01:49:42.850Z,6.40
2023-01-14T01:55:12.349Z,6.40
2023-01-14T02:00:18.984Z,6.30
2023-01-14T02:05:26.438Z,6.30
2023-01-14T02:11:00.119Z,6.30
2023-01-14T02:16:10.650Z,6.20
2023-01-14T02:21:23.832Z,6.20
2023-01-14T02:26:54.193Z,6.20
2023-01-14T02:32:34.874Z,6.10
2023-01-14T02:38:04.385Z,6.10
2023-01-14T02:43:42.510Z,6.00
2023-01-14T02:48:45.700Z,6.10
2023-01-14T02:54:15.845Z,6.10
2023-01-14T02:59:35.860Z,6.10
2023-01-14T03:04:53.400Z,6.10
2023-01-14T03:10:20.269Z,6.10
2023-01-14T03:15:42.714Z,6.10
2023-01-14T03:20:49.925Z,6.10
2023-01-14T03:25:54.997Z,6.10
2023-01-14T03:37:15.993Z,6.20
2023-01-14T03:42:16.530Z,6.20
2023-01-14T03:47:30.780Z,6.20
2023-01-14T03:53:13.604Z,6.30
2023-01-14T03:59:19.781Z,6.30
2023-01-14T04:04:28.762Z,6.30
2023-01-14T04:10:14.340Z,6.40
2023-01-14T04:15:30.032Z,6.40
2023-01-14T04:20:48.209Z,6.40
2023-01-14T04:26:47.474Z,6.50
2023-01-14T04:31:54.319Z,6.50
2023-01-14T04:37:59.425Z,6.50
2023-01-14T04:43:10.554Z,6.50
2023-01-14T04:48:16.529Z,6.50
2023-01-14T04:53:54.716Z,6.50
2023-01-14T04:59:08.682Z,6.50
2023-01-14T05:04:39.529Z,6.50
2023-01-14T05:10:08.596Z,6.50
2023-01-14T05:15:59.954Z,6.50
2023-01-14T05:21:19.962Z,6.50
2023-01-14T05:32:54.201Z,6.50
2023-01-14T05:38:08.026Z,6.50
2023-01-14T05:54:23.804Z,6.50
2023-01-14T05:59:32.083Z,6.60
2023-01-14T06:04:53.590Z,6.60
2023-01-14T06:10:49.415Z,6.60
2023-01-14T06:15:57.068Z,6.60
2023-01-14T06:21:00.808Z,6.70
2023-01-14T06:26:02.647Z,6.70
2023-01-14T06:31:12.491Z,6.70
2023-01-14T06:36:15.319Z,6.70
2023-01-14T06:41:17.121Z,6.70
2023-01-14T06:46:19.400Z,6.70
2023-01-14T06:51:22.105Z,6.70
2023-01-14T06:56:24.116Z,6.70
2023-01-14T07:01:26.221Z,6.70
2023-01-14T07:06:28.152Z,6.70
2023-01-14T07:11:30.540Z,6.70
2023-01-14T07:16:32.467Z,6.70
2023-01-14T07:21:34.288Z,6.70
2023-01-14T07:26:36.109Z,6.60
2023-01-14T07:31:38.163Z,6.70
2023-01-14T07:36:40.039Z,6.70
2023-01-14T07:41:41.882Z,6.70
2023-01-14T07:46:43.706Z,6.70
2023-01-14T07:51:45.610Z,6.70
2023-01-14T07:56:50.470Z,6.80
2023-01-14T08:01:52.454Z,6.80
2023-01-14T08:06:54.407Z,6.80
2023-01-14T08:11:56.220Z,6.90
2023-01-14T08:16:58.329Z,6.90
2023-01-14T08:22:00.156Z,6.90
2023-01-14T08:27:01.975Z,7.00
2023-01-14T08:32:04.580Z,7.00
2023-01-14T08:37:06.495Z,7.10
2023-01-14T08:42:08.324Z,7.10
2023-01-14T08:47:10.173Z,7.20
2023-01-14T08:52:12.553Z,7.20
2023-01-14T08:57:14.383Z,7.30
2023-01-14T09:02:16.948Z,7.30
2023-01-14T09:07:37.568Z,7.40
2023-01-14T09:12:57.948Z,7.40
2023-01-14T09:18:00.206Z,7.50
2023-01-14T09:23:03.312Z,7.50
2023-01-14T09:28:05.424Z,7.60
2023-01-14T09:33:07.714Z,7.60
2023-01-14T09:38:09.522Z,7.70
2023-01-14T09:43:19.105Z,7.70
2023-01-14T09:48:23.351Z,7.80
2023-01-14T09:53:54.649Z,7.80
2023-01-14T09:59:00.315Z,7.80
2023-01-14T10:04:17.522Z,7.90
2023-01-14T10:09:25.901Z,7.90
2023-01-14T10:14:36.332Z,8.00
2023-01-14T10:19:45.973Z,8.00
2023-01-14T10:24:48.015Z,8.10
2023-01-14T10:29:49.984Z,8.20
2023-01-14T10:34:54.638Z,8.20
2023-01-14T10:40:01.050Z,8.30
2023-01-14T10:45:02.951Z,8.40
2023-01-14T10:50:27.183Z,8.40
2023-01-14T10:55:32.499Z,8.50
2023-01-14T11:00:46.120Z,8.50
2023-01-14T11:05:55.105Z,8.60
2023-01-14T11:10:59.843Z,8.60
2023-01-14T11:16:02.102Z,8.70
2023-01-14T11:21:21.663Z,8.80
2023-01-14T11:26:30.423Z,8.80
2023-01-14T11:31:34.586Z,8.90
2023-01-14T11:36:36.994Z,8.90
2023-01-14T11:41:41.192Z,8.90
2023-01-14T11:46:45.543Z,9.00
2023-01-14T11:52:03.432Z,9.00
2023-01-14T11:57:06.382Z,9.00
2023-01-14T12:02:30.195Z,9.10
2023-01-14T12:07:35.280Z,9.10
2023-01-14T12:13:26.883Z,9.10
2023-01-14T12:18:50.027Z,9.20
2023-01-14T12:24:00.440Z,9.20
2023-01-14T12:29:04.754Z,9.20
2023-01-14T12:34:20.226Z,9.20
2023-01-14T12:39:46.200Z,9.30
2023-01-14T12:45:14.758Z,9.30
2023-01-14T12:50:16.860Z,9.40
2023-01-14T12:55:26.685Z,9.50
2023-01-14T13:00:31.448Z,9.50
2023-01-14T13:05:42.946Z,9.60
2023-01-14T13:11:02.279Z,9.60
2023-01-14T13:16:28.862Z,9.70
2023-01-14T13:22:08.549Z,9.70
2023-01-14T13:27:36.464Z,9.80
2023-01-14T13:32:54.687Z,9.80
2023-01-14T13:37:57.912Z,9.90
2023-01-14T13:42:59.797Z,9.90
2023-01-14T13:48:19.810Z,10.00
2023-01-14T13:53:27.881Z,10.00
2023-01-14T13:58:50.840Z,10.00
2023-01-14T14:03:54.001Z,10.10
2023-01-14T14:08:58.553Z,10.10
2023-01-14T14:14:05.894Z,10.10
2023-01-14T14:19:10.685Z,10.20
2023-01-14T14:24:26.819Z,10.20
2023-01-14T14:29:28.883Z,10.30
2023-01-14T14:34:30.888Z,10.30
2023-01-14T14:39:39.638Z,10.30
2023-01-14T14:44:53.256Z,10.40
2023-01-14T14:49:56.086Z,10.50
2023-01-14T14:55:26.493Z,10.50
2023-01-14T15:00:28.562Z,10.50
2023-01-14T15:05:36.314Z,10.60
2023-01-14T15:10:38.732Z,10.60
2023-01-14T15:15:40.635Z,10.70
2023-01-14T15:20:43.784Z,10.70
2023-01-14T15:25:46.507Z,10.70
2023-01-14T15:31:00.270Z,10.70
2023-01-14T15:36:04.267Z,10.80
2023-01-14T15:41:11.236Z,10.80
2023-01-14T15:46:26.497Z,10.80
2023-01-14T15:51:37.154Z,10.80
2023-01-14T15:56:45.511Z,10.80
2023-01-14T16:01:55.227Z,10.90
2023-01-14T16:07:17.710Z,10.80
2023-01-14T16:12:22.564Z,10.80
2023-01-14T16:17:45.301Z,10.90
2023-01-14T16:41:36.737Z,10.90
2023-01-14T17:05:55.919Z,11.10
2023-01-14T17:12:49.557Z,11.10
2023-01-14T17:24:25.789Z,11.10
2023-01-14T17:29:44.106Z,11.20
2023-01-14T18:11:59.551Z,11.30
2023-01-14T18:24:41.649Z,11.20
2023-01-14T18:36:35.559Z,11.10
2023-01-14T18:43:08.622Z,11.10
2023-01-14T18:50:52.093Z,11.00
2023-01-14T19:07:32.871Z,10.80
2023-01-14T20:25:02.299Z,9.90
2023-01-14T20:30:45.216Z,9.80
2023-01-14T20:42:28.841Z,9.20
2023-01-14T20:59:35.210Z,8.70
2023-01-14T21:05:12.230Z,8.60
2023-01-14T21:10:39.286Z,8.50
2023-01-14T21:23:01.872Z,8.30
2023-01-14T21:35:39.244Z,8.10
2023-01-14T22:54:58.464Z,7.60
2023-01-14T23:00:32.040Z,7.60
2023-01-14T23:11:59.516Z,7.60
2023-01-14T23:17:50.477Z,7.50
2023-01-14T23:24:12.717Z,7.50
2023-01-14T23:30:01.892Z,7.60
2023-01-14T23:35:23.477Z,7.50
2023-01-14T23:40:58.934Z,7.50
2023-01-14T23:53:39.168Z,7.50
2023-01-14T23:58:16.786Z,7.40
